Flight Track Log - Related Links

Times and Time Zones

All times are in EDT time to prevent confusion due to time zone crossing. See the QFA975 flight status page for this flight to view local times or setup timezone preferences in your user account.

Time Position Orientation Groundspeed Altitude Reporting Facility
EDT Latitude Longitude Course Direction KTS MPH feet Rate Location/Type
Wed 02:44:43 AM -19.2249 146.7817 87° East 173 199 1,100  Level Aus ATC (RADAR)
Wed 02:45:33 AM -19.2229 146.8269 103° East 201 231 2,400 2,171 Climbing Aus ATC (RADAR)
Wed 02:46:28 AM -19.2359 146.8877 148° Southeast 236 272 4,900 3,150 Climbing Aus ATC (RADAR)
Wed 02:47:33 AM -19.3055 146.9329 147° Southeast 272 313 8,700 3,218 Climbing Aus ATC (RADAR)
Wed 02:48:18 AM -19.3534 146.9663 147° Southeast 280 322 10,800 1,950 Climbing Aus ATC (RADAR)
Wed 02:48:53 AM -19.3961 146.9958 147° Southeast 320 368 11,300 1,929 Climbing Aus ATC (RADAR)
Wed 02:49:42 AM -19.4619 147.0417 146° Southeast 340 391 13,500 2,562 Climbing Aus ATC (RADAR)
Wed 02:50:22 AM -19.5166 147.0807 147° Southeast 358 412 15,100 2,400 Climbing Aus ATC (RADAR)
Wed 02:51:27 AM -19.6094 147.1459 146° Southeast 374 430 17,700 2,191 Climbing Aus ATC (RADAR)
Wed 02:52:17 AM -19.6834 147.1982 146° Southeast 390 449 19,300 1,800 Climbing Aus ATC (RADAR)
Wed 02:52:57 AM -19.7454 147.2421 147° Southeast 408 470 20,400 1,906 Climbing Aus ATC (RADAR)
Wed 02:53:42 AM -19.8166 147.2919 146° Southeast 410 472 22,000 1,835 Climbing Aus ATC (RADAR)
Wed 02:54:22 AM -19.8809 147.3385 144° Southeast 424 488 23,000 1,624 Climbing Aus ATC (RADAR)
Wed 02:55:07 AM -19.9531 147.3942 146° Southeast 428 493 24,300 1,500 Climbing Aus ATC (RADAR)
Wed 02:56:42 AM -20.1146 147.5089 146° Southeast 449 517 26,500 1,277 Climbing Aus ATC (RADAR)
Wed 02:57:42 AM -20.2204 147.5843 146° Southeast 461 531 27,600 1,255 Climbing Aus ATC (RADAR)
Wed 02:58:32 AM -20.3108 147.6491 147° Southeast 467 537 28,800 1,643 Climbing Aus ATC (RADAR)
Wed 02:59:06 AM -20.3740 147.6937 146° Southeast 466 536 29,900 1,975 Climbing Aus ATC (RADAR)
Wed 02:59:51 AM -20.4523 147.7498 146° Southeast 447 514 31,400 1,840 Climbing Aus ATC (RADAR)
Wed 03:00:21 AM -20.5036 147.7867 147° Southeast 444 511 32,200 1,200 Climbing Aus ATC (RADAR)
Wed 03:00:56 AM -20.5641 147.8287 146° Southeast 443 510 32,700 933 Climbing Aus ATC (RADAR)
Wed 03:01:51 AM -20.6584 147.8970 146° Southeast 442 509 33,600 991 Climbing Aus ATC (RADAR)
Wed 03:02:51 AM -20.7609 147.9718 147° Southeast 445 512 34,600 873 Climbing Aus ATC (RADAR)
Wed 03:03:41 AM -20.8476 148.0327 146° Southeast 445 512 35,200 424 Climbing Aus ATC (RADAR)
Wed 03:04:16 AM -20.9080 148.0757 146° Southeast 440 506 35,200  Level Aus ATC (RADAR)
Wed 03:05:06 AM -20.9934 148.1376 146° Southeast 446 513 35,200  Level Aus ATC (RADAR)
Wed 03:06:06 AM -21.0960 148.2112 147° Southeast 445 512 35,200  Level Aus ATC (RADAR)
Wed 03:07:11 AM -21.2079 148.2905 145° Southeast 446 513 35,200  Level Aus ATC (RADAR)
Wed 03:08:11 AM -21.3094 148.3658 146° Southeast 444 511 35,200  Level Aus ATC (RADAR)
Wed 03:08:51 AM -21.3769 148.4156 146° Southeast 442 509 35,200  Level Aus ATC (RADAR)
Wed 03:09:25 AM -21.4363 148.4586 146° Southeast 441 507 35,200  Level Aus ATC (RADAR)
Wed 03:10:15 AM -21.5206 148.5208 145° Southeast 441 507 35,200  Level Aus ATC (RADAR)
Wed 03:11:10 AM -21.6131 148.5901 146° Southeast 442 509 35,200  Level Aus ATC (RADAR)
Wed 03:12:01 AM -21.6977 148.6524 146° Southeast 443 510 35,200  Level Aus ATC (RADAR)
Wed 03:13:00 AM -21.7994 148.7268 146° Southeast 444 511 35,200  Level Aus ATC (RADAR)
Wed 03:13:45 AM -21.8758 148.7827 145° Southeast 443 510 35,200  Level Aus ATC (RADAR)
Wed 03:14:20 AM -21.9347 148.8274 145° Southeast 445 512 35,200  Level Aus ATC (RADAR)
Wed 03:15:05 AM -22.0111 148.8847 145° Southeast 447 514 35,200  Level Aus ATC (RADAR)
Wed 03:15:35 AM -22.0619 148.9226 146° Southeast 446 513 35,200  Level Aus ATC (RADAR)
Wed 03:16:10 AM -22.1219 148.9666 145° Southeast 447 514 35,200  Level Aus ATC (RADAR)
Wed 03:17:00 AM -22.2071 149.0308 146° Southeast 450 518 35,200  Level Aus ATC (RADAR)
Wed 03:18:00 AM -22.3102 149.1067 145° Southeast 449 517 35,200  Level Aus ATC (RADAR)
Wed 03:18:39 AM -22.3789 149.1582 146° Southeast 452 520 35,200  Level Aus ATC (RADAR)
Wed 03:19:14 AM -22.4393 149.2021 145° Southeast 449 517 35,200  Level Aus ATC (RADAR)
Wed 03:20:05 AM -22.5253 149.2662 145° Southeast 452 520 35,200  Level Aus ATC (RADAR)
Wed 03:21:04 AM -22.6282 149.3433 145° Southeast 451 519 35,200  Level Aus ATC (RADAR)
Wed 03:22:04 AM -22.7299 149.4199 146° Southeast 448 516 35,200  Level Aus ATC (RADAR)
Wed 03:23:09 AM -22.8415 149.5029 146° Southeast 448 516 35,200  Level Aus ATC (RADAR)
Wed 03:23:54 AM -22.9189 149.5596 145° Southeast 448 516 35,200  Level Aus ATC (RADAR)
Wed 03:24:29 AM -22.9786 149.6043 146° Southeast 446 513 35,200  Level Aus ATC (RADAR)
Wed 03:25:19 AM -23.0644 149.6662 151° Southeast 443 510 35,200  Level Aus ATC (RADAR)
Wed 03:26:19 AM -23.1709 149.7312 150° Southeast 439 505 35,200  Level Aus ATC (RADAR)
Wed 03:27:18 AM -23.2767 149.7973 150° Southeast 438 504 35,200  Level Aus ATC (RADAR)
Wed 03:28:18 AM -23.3818 149.8641 149° Southeast 438 504 35,200  Level Aus ATC (RADAR)
Wed 03:29:08 AM -23.4695 149.9205 151° Southeast 440 506 35,200  Level Aus ATC (RADAR)
Wed 03:29:43 AM -23.5314 149.9586 150° Southeast 439 505 35,200  Level Aus ATC (RADAR)
Wed 03:30:33 AM -23.6197 150.0133 150° Southeast 439 505 35,200  Level Aus ATC (RADAR)
Wed 03:31:08 AM -23.6817 150.0524 150° Southeast 441 507 35,200  Level Aus ATC (RADAR)
Wed 03:32:33 AM -23.8320 150.1483 150° Southeast 443 510 35,200  Level Aus ATC (RADAR)
Wed 03:33:33 AM -23.9387 150.2166 149° Southeast 443 510 35,200  Level Aus ATC (RADAR)
Wed 03:34:13 AM -24.0096 150.2623 150° Southeast 445 512 35,200  Level Aus ATC (RADAR)
Wed 03:34:53 AM -24.0812 150.3080 150° Southeast 446 513 35,200  Level Aus ATC (RADAR)
Wed 03:35:38 AM -24.1612 150.3593 149° Southeast 445 512 35,200  Level Aus ATC (RADAR)
Wed 03:37:02 AM -24.3125 150.4577 149° Southeast 446 513 35,200  Level Aus ATC (RADAR)
Wed 03:37:57 AM -24.4097 150.5210 149° Southeast 442 509 35,200  Level Aus ATC (RADAR)
Wed 03:38:32 AM -24.4718 150.5612 147° Southeast 442 509 35,200  Level Aus ATC (RADAR)
Wed 03:39:22 AM -24.5586 150.6223 146° Southeast 443 510 35,200  Level Aus ATC (RADAR)
Wed 03:39:57 AM -24.6190 150.6664 146° Southeast 443 510 35,200  Level Aus ATC (RADAR)
Wed 03:40:47 AM -24.7059 150.7297 147° Southeast 448 516 35,200  Level Aus ATC (RADAR)
Wed 03:42:12 AM -24.8518 150.8334 146° Southeast 442 509 35,200  Level Aus ATC (RADAR)
Wed 03:43:02 AM -24.9369 150.8973 146° Southeast 441 507 35,200  Level Aus ATC (RADAR)
Wed 03:43:37 AM -24.9963 150.9419 147° Southeast 439 505 35,200  Level Aus ATC (RADAR)
Wed 03:44:27 AM -25.0818 151.0041 147° Southeast 439 505 35,200  Level Aus ATC (RADAR)
Wed 03:45:06 AM -25.1505 151.0531 146° Southeast 440 506 35,200  Level Aus ATC (RADAR)
Wed 03:45:51 AM -25.2276 151.1096 146° Southeast 442 509 35,200  Level Aus ATC (RADAR)
Wed 03:47:11 AM -25.3643 151.2122 146° Southeast 444 511 35,200  Level Aus ATC (RADAR)
Wed 03:47:41 AM -25.4159 151.2507 147° Southeast 446 513 35,200  Level Aus ATC (RADAR)
Wed 03:48:41 AM -25.5191 151.3263 146° Southeast 445 512 35,200  Level Aus ATC (RADAR)
Wed 03:49:31 AM -25.6052 151.3900 147° Southeast 444 511 35,200  Level Aus ATC (RADAR)
Wed 03:50:06 AM -25.6658 151.4341 144° Southeast 445 512 35,200  Level Aus ATC (RADAR)
Wed 03:51:16 AM -25.7840 151.5309 138° Southeast 457 526 35,200  Level Aus ATC (RADAR)
Wed 03:52:41 AM -25.9188 151.6672 138° Southeast 459 528 35,200  Level Aus ATC (RADAR)
Wed 03:53:41 AM -26.0144 151.7616 138° Southeast 456 525 35,200  Level Aus ATC (RADAR)
Wed 03:54:35 AM -26.1011 151.8484 138° Southeast 457 526 35,200 -539 Level Aus ATC (RADAR)
Wed 03:55:10 AM -26.1559 151.9038 138° Southeast 451 519 34,400 -2,400 Descending Aus ATC (RADAR)
Wed 03:55:55 AM -26.2260 151.9749 139° Southeast 448 516 32,000 -3,143 Descending Aus ATC (RADAR)
Wed 03:56:55 AM -26.3221 152.0692 138° Southeast 453 521 28,900 -2,836 Descending Aus ATC (RADAR)
Wed 03:57:45 AM -26.4005 152.1476 137° Southeast 443 510 26,800 -2,509 Descending Aus ATC (RADAR)
Wed 03:58:45 AM -26.4893 152.2404 138° Southeast 424 488 24,300 -2,455 Descending Aus ATC (RADAR)
Wed 03:59:35 AM -26.5601 152.3122 138° Southeast 397 457 22,300 -2,329 Descending Aus ATC (RADAR)
Wed 04:00:10 AM -26.6079 152.3596 139° Southeast 385 443 21,000 -2,250 Descending Aus ATC (RADAR)
Wed 04:00:55 AM -26.6680 152.4188 138° Southeast 375 432 19,300 -2,155 Descending Aus ATC (RADAR)
Wed 04:01:53 AM -26.7386 152.4909 137° Southeast 366 421 17,300 -2,095 Descending Aus ATC (RADAR)
Wed 04:03:01 AM -26.8245 152.5806 138° Southeast 351 404 14,900 -2,126 Descending Aus ATC (RADAR)
Wed 04:04:00 AM -26.8966 152.6537 138° Southeast 339 390 12,800 -2,037 Descending Aus ATC (RADAR)
Wed 04:04:50 AM -26.9538 152.7124 137° Southeast 325 374 11,200 -1,906 Descending Aus ATC (RADAR)
Wed 04:05:25 AM -26.9925 152.7527 137° Southeast 320 368 10,100 -1,037 Descending Aus ATC (RADAR)
Wed 04:06:11 AM -27.0370 152.7998 139° Southeast 275 316 9,800 -1,346 Descending Aus ATC (RADAR)
Wed 04:07:12 AM -27.0948 152.8569 140° Southeast 267 307 7,700 -1,707 Descending Aus ATC (RADAR)
Wed 04:08:07 AM -27.1464 152.9051 163° South 256 295 6,500 -1,121 Descending Aus ATC (RADAR)
Wed 04:08:59 AM -27.2097 152.9272 155° Southeast 254 292 5,700 -882 Descending Aus ATC (RADAR)
Wed 04:09:49 AM -27.2606 152.9534 157° South 232 267 5,000 -628 Descending Aus ATC (RADAR)
Wed 04:10:25 AM -27.2930 152.9690 156° South 215 247 4,800 -825 Descending Aus ATC (RADAR)
Wed 04:11:09 AM -27.3321 152.9882 157° South 201 231 3,900 -1,096 Descending Aus ATC (RADAR)
Wed 04:12:09 AM -27.3814 153.0120 140° Southeast 186 214 2,900 -940 Descending Aus ATC (RADAR)
Wed 04:13:55 AM -27.4425 153.0704 67° East 144 166 1,300 -890 Descending Aus ATC (RADAR)
Wed 04:14:44 AM -27.4301 153.1026 27° Northeast 138 159 600 -786 Descending Aus ATC (RADAR)
Wed 04:15:19 AM -27.4094 153.1145 27° Northeast 141 162 200 -686 Descending Aus ATC (RADAR)

Login

Don't have an account? Register now (free) for customized features, flight alerts, and more!